APG711 RPLL-RPVK
Flight info
| Callsign | APG711 |
|---|---|
| Flight time | 0h 44m |
| Altitude | 27000 |
| Route | VERDE4V VERDE W24 TAPER TAPER1A |
| Aircraft | A320/M-SDE3FGHIRWY/LB1 |
Departure
| Time | 2026-05-04 08:50 |
|---|---|
| Airport | Ninoy Aquino International Airport (RPLL) |
Arrival
| Time | 2026-05-04 09:35 |
|---|---|
| Airport | Kalibo International Airport (RPVK) |
| Time | Latitude | Longitude | Altitude | Speed | Heading |
|---|---|---|---|---|---|
| 2026-05-04 08:31 | 14.51714 | 121.01476 | 54 ft | 0 kts | 46° |
| 2026-05-04 08:40 | 14.51710 | 121.01472 | 54 ft | 2 kts | 46° |
| 2026-05-04 08:41 | 14.51700 | 121.01461 | 54 ft | 2 kts | 45° |
| 2026-05-04 08:41 | 14.51689 | 121.01450 | 54 ft | 2 kts | 45° |
| 2026-05-04 08:41 | 14.51679 | 121.01438 | 53 ft | 2 kts | 45° |
| 2026-05-04 08:41 | 14.51672 | 121.01430 | 53 ft | 2 kts | 45° |
| 2026-05-04 08:42 | 14.51659 | 121.01422 | 53 ft | 2 kts | 20° |
| 2026-05-04 08:42 | 14.51644 | 121.01418 | 54 ft | 2 kts | 1° |
| 2026-05-04 08:42 | 14.51629 | 121.01421 | 54 ft | 2 kts | 342° |
| 2026-05-04 08:42 | 14.51615 | 121.01427 | 55 ft | 2 kts | 323° |
| 2026-05-04 08:43 | 14.51609 | 121.01432 | 55 ft | 1 kts | 312° |
| 2026-05-04 08:43 | 14.51606 | 121.01436 | 55 ft | 0 kts | 314° |
| 2026-05-04 08:43 | 14.51606 | 121.01435 | 55 ft | 0 kts | 314° |
| 2026-05-04 08:46 | 14.51870 | 121.01163 | 46 ft | 11 kts | 314° |
| 2026-05-04 08:46 | 14.51903 | 121.01129 | 45 ft | 6 kts | 315° |
| 2026-05-04 08:46 | 14.51948 | 121.01083 | 44 ft | 11 kts | 315° |
| 2026-05-04 08:46 | 14.52017 | 121.01012 | 43 ft | 16 kts | 315° |
| 2026-05-04 08:47 | 14.52111 | 121.00916 | 40 ft | 21 kts | 313° |
| 2026-05-04 08:47 | 14.52221 | 121.00800 | 35 ft | 23 kts | 316° |
| 2026-05-04 08:47 | 14.52327 | 121.00691 | 35 ft | 18 kts | 314° |
| 2026-05-04 08:47 | 14.52416 | 121.00597 | 34 ft | 18 kts | 315° |
| 2026-05-04 08:48 | 14.52476 | 121.00536 | 34 ft | 12 kts | 315° |
| 2026-05-04 08:48 | 14.52483 | 121.00475 | 33 ft | 9 kts | 231° |
| 2026-05-04 08:48 | 14.52429 | 121.00419 | 32 ft | 11 kts | 224° |
| 2026-05-04 08:48 | 14.52376 | 121.00397 | 32 ft | 8 kts | 155° |
| 2026-05-04 08:49 | 14.52356 | 121.00414 | 32 ft | 0 kts | 135° |
| 2026-05-04 08:50 | 14.50165 | 121.02657 | 775 ft | 167 kts | 133° |
| 2026-05-04 08:50 | 14.49381 | 121.03489 | 1503 ft | 163 kts | 130° |
| 2026-05-04 08:51 | 14.48579 | 121.04317 | 2074 ft | 168 kts | 130° |
| 2026-05-04 08:51 | 14.47726 | 121.05218 | 2444 ft | 183 kts | 130° |
| 2026-05-04 08:51 | 14.47138 | 121.05835 | 2675 ft | 194 kts | 130° |
| 2026-05-04 08:51 | 14.46157 | 121.06860 | 2985 ft | 214 kts | 130° |
| 2026-05-04 08:52 | 14.44957 | 121.07922 | 3334 ft | 238 kts | 149° |
| 2026-05-04 08:52 | 14.43844 | 121.08255 | 3578 ft | 257 kts | 173° |
| 2026-05-04 08:52 | 14.43260 | 121.08273 | 3717 ft | 264 kts | 177° |
| 2026-05-04 08:52 | 14.42322 | 121.08232 | 3942 ft | 273 kts | 181° |
| 2026-05-04 08:53 | 14.40379 | 121.08072 | 4562 ft | 282 kts | 182° |
| 2026-05-04 08:54 | 14.27573 | 121.07217 | 9184 ft | 306 kts | 180° |
| 2026-05-04 08:55 | 14.25451 | 121.07105 | 9874 ft | 310 kts | 180° |
| 2026-05-04 08:55 | 14.23275 | 121.06990 | 10501 ft | 316 kts | 180° |
| 2026-05-04 08:55 | 14.21014 | 121.06874 | 10828 ft | 332 kts | 180° |
| 2026-05-04 08:55 | 14.18654 | 121.06753 | 11103 ft | 349 kts | 181° |
| 2026-05-04 08:57 | 14.01390 | 121.05849 | 14594 ft | 380 kts | 181° |
| 2026-05-04 09:01 | 13.62580 | 121.03829 | 20721 ft | 413 kts | 182° |
| 2026-05-04 09:01 | 13.59724 | 121.03679 | 21103 ft | 415 kts | 181° |
| 2026-05-04 09:01 | 13.56825 | 121.03528 | 21466 ft | 417 kts | 181° |
| 2026-05-04 09:01 | 13.53896 | 121.03392 | 21824 ft | 419 kts | 179° |
| 2026-05-04 09:02 | 13.51023 | 121.03711 | 22145 ft | 419 kts | 165° |
| 2026-05-04 09:02 | 13.48247 | 121.04743 | 22507 ft | 419 kts | 152° |
| 2026-05-04 09:02 | 13.45771 | 121.06316 | 22867 ft | 420 kts | 145° |
| 2026-05-04 09:02 | 13.43367 | 121.08029 | 23208 ft | 422 kts | 144° |
| 2026-05-04 09:03 | 13.40960 | 121.09760 | 23548 ft | 424 kts | 144° |
| 2026-05-04 09:03 | 13.38543 | 121.11484 | 23872 ft | 426 kts | 144° |
| 2026-05-04 09:03 | 13.36081 | 121.13223 | 24197 ft | 428 kts | 145° |
| 2026-05-04 09:03 | 13.33614 | 121.14954 | 24502 ft | 430 kts | 145° |
| 2026-05-04 09:04 | 13.31121 | 121.16700 | 24816 ft | 432 kts | 145° |
| 2026-05-04 09:04 | 13.28620 | 121.18452 | 25126 ft | 434 kts | 145° |
| 2026-05-04 09:04 | 13.26091 | 121.20224 | 25439 ft | 435 kts | 145° |
| 2026-05-04 09:04 | 13.23582 | 121.21983 | 25727 ft | 437 kts | 145° |
| 2026-05-04 09:05 | 13.21063 | 121.23749 | 25987 ft | 439 kts | 145° |
| 2026-05-04 09:05 | 13.18501 | 121.25544 | 26262 ft | 441 kts | 145° |
| 2026-05-04 09:05 | 13.15968 | 121.27319 | 26551 ft | 442 kts | 145° |
| 2026-05-04 09:05 | 13.13415 | 121.29108 | 26809 ft | 444 kts | 145° |
| 2026-05-04 09:06 | 13.10850 | 121.30904 | 26898 ft | 444 kts | 145° |
| 2026-05-04 09:07 | 12.92924 | 121.43447 | 26893 ft | 444 kts | 144° |
| 2026-05-04 09:08 | 12.90392 | 121.45217 | 26883 ft | 444 kts | 144° |
| 2026-05-04 09:08 | 12.87815 | 121.47018 | 26878 ft | 444 kts | 144° |
| 2026-05-04 09:08 | 12.85251 | 121.48811 | 26871 ft | 443 kts | 144° |
| 2026-05-04 09:08 | 12.82692 | 121.50600 | 26863 ft | 444 kts | 144° |
| 2026-05-04 09:09 | 12.80127 | 121.52392 | 26855 ft | 444 kts | 144° |
| 2026-05-04 09:09 | 12.77572 | 121.54176 | 26852 ft | 444 kts | 144° |
| 2026-05-04 09:09 | 12.75035 | 121.55946 | 26850 ft | 444 kts | 144° |
| 2026-05-04 09:09 | 12.72473 | 121.57732 | 26847 ft | 443 kts | 144° |
| 2026-05-04 09:10 | 12.69922 | 121.59512 | 26844 ft | 442 kts | 144° |
| 2026-05-04 09:10 | 12.67396 | 121.61275 | 26844 ft | 442 kts | 144° |
| 2026-05-04 09:10 | 12.64850 | 121.63051 | 26843 ft | 443 kts | 144° |
| 2026-05-04 09:10 | 12.62302 | 121.64828 | 26843 ft | 443 kts | 144° |
| 2026-05-04 09:11 | 12.59739 | 121.66615 | 26844 ft | 443 kts | 144° |
| 2026-05-04 09:11 | 12.57169 | 121.68407 | 26826 ft | 443 kts | 144° |
| 2026-05-04 09:11 | 12.54653 | 121.70161 | 26411 ft | 441 kts | 144° |
| 2026-05-04 09:11 | 12.52118 | 121.71928 | 25905 ft | 437 kts | 144° |
| 2026-05-04 09:12 | 12.49649 | 121.73646 | 25571 ft | 425 kts | 144° |
| 2026-05-04 09:12 | 12.47236 | 121.75326 | 25363 ft | 411 kts | 144° |
| 2026-05-04 09:14 | 12.32472 | 121.86062 | 23542 ft | 346 kts | 140° |
| 2026-05-04 09:14 | 12.31187 | 121.87107 | 23246 ft | 345 kts | 140° |
| 2026-05-04 09:14 | 12.29954 | 121.88110 | 22959 ft | 344 kts | 140° |
| 2026-05-04 09:15 | 12.28105 | 121.89615 | 22540 ft | 343 kts | 140° |
| 2026-05-04 09:15 | 12.26245 | 121.91124 | 22130 ft | 341 kts | 140° |
| 2026-05-04 09:15 | 12.24384 | 121.92633 | 21740 ft | 339 kts | 139° |
| 2026-05-04 09:15 | 12.22532 | 121.94136 | 21351 ft | 337 kts | 140° |
| 2026-05-04 09:17 | 12.08345 | 122.06057 | 18261 ft | 321 kts | 125° |
| 2026-05-04 09:18 | 12.07134 | 122.07966 | 17879 ft | 317 kts | 116° |
| 2026-05-04 09:18 | 12.06121 | 122.09961 | 17503 ft | 315 kts | 115° |
| 2026-05-04 09:18 | 12.05140 | 122.11951 | 17126 ft | 314 kts | 115° |
| 2026-05-04 09:18 | 12.04159 | 122.13942 | 16751 ft | 312 kts | 115° |
| 2026-05-04 09:19 | 12.03180 | 122.15920 | 16364 ft | 311 kts | 115° |
| 2026-05-04 09:19 | 12.02198 | 122.17901 | 15966 ft | 310 kts | 115° |
| 2026-05-04 09:19 | 12.01218 | 122.19869 | 15575 ft | 309 kts | 115° |
| 2026-05-04 09:19 | 12.00244 | 122.21824 | 15185 ft | 308 kts | 115° |
| 2026-05-04 09:20 | 11.99267 | 122.23782 | 14798 ft | 307 kts | 115° |
| 2026-05-04 09:20 | 11.98309 | 122.25703 | 14413 ft | 306 kts | 115° |
| 2026-05-04 09:20 | 11.97338 | 122.27647 | 14024 ft | 304 kts | 115° |
| 2026-05-04 09:20 | 11.96382 | 122.29565 | 13645 ft | 303 kts | 115° |
| 2026-05-04 09:21 | 11.95428 | 122.31475 | 13272 ft | 301 kts | 115° |
| 2026-05-04 09:21 | 11.94490 | 122.33352 | 12903 ft | 299 kts | 115° |
| 2026-05-04 09:21 | 11.93537 | 122.35259 | 12526 ft | 297 kts | 115° |
| 2026-05-04 09:21 | 11.92603 | 122.37123 | 12151 ft | 296 kts | 115° |
| 2026-05-04 09:22 | 11.91664 | 122.39001 | 11773 ft | 294 kts | 115° |
| 2026-05-04 09:22 | 11.90740 | 122.40847 | 11396 ft | 293 kts | 115° |
| 2026-05-04 09:22 | 11.89810 | 122.42696 | 11027 ft | 292 kts | 116° |
| 2026-05-04 09:22 | 11.88798 | 122.44482 | 10658 ft | 291 kts | 119° |
| 2026-05-04 09:23 | 11.87739 | 122.46264 | 10287 ft | 289 kts | 120° |
| 2026-05-04 09:23 | 11.86696 | 122.48010 | 9932 ft | 287 kts | 120° |
| 2026-05-04 09:23 | 11.85646 | 122.49731 | 9584 ft | 286 kts | 124° |
| 2026-05-04 09:23 | 11.84156 | 122.51070 | 9201 ft | 289 kts | 153° |
| 2026-05-04 09:25 | 11.71654 | 122.45628 | 6658 ft | 287 kts | 210° |
| 2026-05-04 09:25 | 11.69951 | 122.44576 | 6295 ft | 286 kts | 210° |
| 2026-05-04 09:26 | 11.68234 | 122.43518 | 5948 ft | 285 kts | 209° |
| 2026-05-04 09:26 | 11.66538 | 122.42471 | 5629 ft | 280 kts | 209° |
| 2026-05-04 09:26 | 11.64903 | 122.41464 | 5318 ft | 273 kts | 209° |
| 2026-05-04 09:26 | 11.63291 | 122.40470 | 4967 ft | 265 kts | 209° |
| 2026-05-04 09:27 | 11.61743 | 122.39515 | 4623 ft | 256 kts | 208° |
| 2026-05-04 09:27 | 11.60230 | 122.38583 | 4412 ft | 245 kts | 208° |
| 2026-05-04 09:27 | 11.58789 | 122.37695 | 4311 ft | 237 kts | 208° |
| 2026-05-04 09:27 | 11.57425 | 122.36852 | 4228 ft | 219 kts | 208° |
| 2026-05-04 09:28 | 11.56136 | 122.36056 | 4246 ft | 217 kts | 208° |
| 2026-05-04 09:28 | 11.54842 | 122.35260 | 4146 ft | 217 kts | 210° |
| 2026-05-04 09:28 | 11.53718 | 122.34242 | 3916 ft | 218 kts | 231° |
| 2026-05-04 09:28 | 11.53037 | 122.32899 | 3610 ft | 210 kts | 253° |
| 2026-05-04 09:29 | 11.52854 | 122.31468 | 3332 ft | 199 kts | 273° |
| 2026-05-04 09:29 | 11.53113 | 122.30135 | 3152 ft | 181 kts | 293° |
| 2026-05-04 09:29 | 11.53659 | 122.29082 | 3133 ft | 159 kts | 310° |
| 2026-05-04 09:29 | 11.54384 | 122.28281 | 3070 ft | 148 kts | 326° |
| 2026-05-04 09:30 | 11.55240 | 122.27712 | 2996 ft | 144 kts | 339° |
| 2026-05-04 09:30 | 11.56167 | 122.27376 | 2911 ft | 141 kts | 353° |
| 2026-05-04 09:30 | 11.57132 | 122.27259 | 2817 ft | 138 kts | 5° |
| 2026-05-04 09:30 | 11.58085 | 122.27360 | 2696 ft | 136 kts | 18° |
| 2026-05-04 09:31 | 11.58981 | 122.27669 | 2454 ft | 133 kts | 30° |
| 2026-05-04 09:31 | 11.59767 | 122.28155 | 2270 ft | 132 kts | 41° |
| 2026-05-04 09:31 | 11.60430 | 122.28793 | 2085 ft | 132 kts | 50° |
| 2026-05-04 09:31 | 11.61039 | 122.29499 | 1901 ft | 132 kts | 52° |
| 2026-05-04 09:32 | 11.61651 | 122.30214 | 1715 ft | 132 kts | 52° |
| 2026-05-04 09:32 | 11.62255 | 122.30920 | 1534 ft | 132 kts | 51° |
| 2026-05-04 09:34 | 11.66450 | 122.35823 | 248 ft | 130 kts | 49° |
| 2026-05-04 09:34 | 11.67054 | 122.36513 | 113 ft | 130 kts | 49° |
| 2026-05-04 09:34 | 11.67630 | 122.37178 | 47 ft | 107 kts | 49° |
| 2026-05-04 09:34 | 11.68006 | 122.37615 | 44 ft | 55 kts | 49° |
| 2026-05-04 09:35 | 11.68178 | 122.37814 | 44 ft | 24 kts | 48° |
| 2026-05-04 09:35 | 11.68282 | 122.37934 | 43 ft | 13 kts | 49° |
| 2026-05-04 09:35 | 11.68345 | 122.38005 | 42 ft | 9 kts | 32° |
| 2026-05-04 09:35 | 11.68399 | 122.38000 | 41 ft | 5 kts | 352° |
| 2026-05-04 09:37 | 11.68469 | 122.37994 | 42 ft | 0 kts | 352° |